createdAt,value
2019-03-28T00:00:41.373Z,21.27
2019-03-28T00:03:07.635Z,21.80
2019-03-28T00:05:33.864Z,21.10
2019-03-28T00:08:00.138Z,25.87
2019-03-28T00:10:26.392Z,24.40
2019-03-28T00:12:52.620Z,19.60
2019-03-28T00:15:18.836Z,22.30
2019-03-28T00:17:45.078Z,21.93
2019-03-28T00:20:11.606Z,17.97
2019-03-28T00:22:52.314Z,21.33
2019-03-28T00:25:19.011Z,24.53
2019-03-28T00:27:46.260Z,25.07
2019-03-28T00:30:13.595Z,22.50
2019-03-28T00:32:39.852Z,16.20
2019-03-28T00:35:06.224Z,18.77
2019-03-28T00:37:32.458Z,23.13
2019-03-28T00:39:58.680Z,24.03
2019-03-28T00:42:24.955Z,16.43
2019-03-28T00:44:51.428Z,17.60
2019-03-28T00:47:17.675Z,18.27
2019-03-28T00:49:45.811Z,23.07
2019-03-28T00:52:12.145Z,21.63
2019-03-28T00:54:38.385Z,20.67
2019-03-28T00:57:04.602Z,19.17
2019-03-28T00:59:31.484Z,19.83
2019-03-28T01:01:57.744Z,19.57
2019-03-28T01:04:24.019Z,17.57
2019-03-28T01:06:50.314Z,19.00
2019-03-28T01:09:16.555Z,19.00
2019-03-28T01:11:42.802Z,20.97
2019-03-28T01:14:09.036Z,17.60
2019-03-28T01:16:36.342Z,22.10
2019-03-28T01:19:02.824Z,17.53
2019-03-28T01:21:29.083Z,15.13
2019-03-28T01:23:55.458Z,18.80
2019-03-28T01:26:21.708Z,23.30
2019-03-28T01:28:47.937Z,17.60
2019-03-28T01:31:14.544Z,21.23
2019-03-28T01:33:40.785Z,20.60
2019-03-28T01:36:07.021Z,21.10
2019-03-28T01:38:33.297Z,20.97
2019-03-28T01:40:59.630Z,26.33
2019-03-28T01:43:25.908Z,22.00
2019-03-28T01:45:52.219Z,21.60
2019-03-28T01:48:18.457Z,21.90
2019-03-28T01:50:44.729Z,23.63
2019-03-28T01:53:11.106Z,19.17
2019-03-28T01:55:37.580Z,19.17
2019-03-28T01:58:03.792Z,23.57
2019-03-28T02:00:30.038Z,21.27
2019-03-28T02:02:56.266Z,24.17
2019-03-28T02:05:22.489Z,17.83
2019-03-28T02:07:48.764Z,18.67
2019-03-28T02:10:14.987Z,20.80
2019-03-28T02:12:41.221Z,21.77
2019-03-28T02:15:07.967Z,19.17
2019-03-28T02:17:34.209Z,27.00
2019-03-28T02:20:00.451Z,18.60
2019-03-28T02:22:26.686Z,21.43
2019-03-28T02:24:52.949Z,17.80
2019-03-28T02:27:24.269Z,20.13
2019-03-28T02:29:47.398Z,18.70
2019-03-28T02:32:13.651Z,22.30
2019-03-28T02:34:39.874Z,19.03
2019-03-28T02:37:06.190Z,21.20
2019-03-28T02:39:32.387Z,18.37
2019-03-28T02:41:58.642Z,18.53
2019-03-28T02:44:24.885Z,22.93
2019-03-28T02:46:51.125Z,20.00
2019-03-28T02:49:17.451Z,20.27
2019-03-28T02:51:43.674Z,24.57
2019-03-28T02:54:09.933Z,21.83
2019-03-28T02:56:36.191Z,21.37
2019-03-28T02:59:02.975Z,21.13
2019-03-28T03:01:30.398Z,20.23
2019-03-28T03:03:56.748Z,21.97
2019-03-28T03:06:22.971Z,20.93
2019-03-28T03:08:49.223Z,20.60
2019-03-28T03:11:15.431Z,17.77
2019-03-28T03:13:41.666Z,24.27
2019-03-28T03:16:07.958Z,17.90
2019-03-28T03:18:34.178Z,19.50
2019-03-28T03:21:00.431Z,16.90
2019-03-28T03:23:26.672Z,21.87
2019-03-28T03:25:52.898Z,20.13
2019-03-28T03:28:20.152Z,20.70
2019-03-28T03:30:46.405Z,21.10
2019-03-28T03:33:13.994Z,20.57
2019-03-28T03:35:40.341Z,21.50
2019-03-28T03:38:06.594Z,18.13
2019-03-28T03:40:32.841Z,23.10
2019-03-28T03:42:59.075Z,20.87
2019-03-28T03:45:25.404Z,17.67
2019-03-28T03:47:51.646Z,22.93
2019-03-28T03:50:27.143Z,22.33
2019-03-28T03:52:53.394Z,18.40
2019-03-28T03:55:19.635Z,22.13
2019-03-28T03:57:47.203Z,23.67
2019-03-28T04:00:30.192Z,24.27
2019-03-28T04:02:56.624Z,18.23
2019-03-28T04:05:22.900Z,26.13
2019-03-28T04:07:49.107Z,19.70
2019-03-28T04:10:15.348Z,21.63
2019-03-28T04:12:41.584Z,19.67
2019-03-28T04:15:08.095Z,19.13
2019-03-28T04:17:34.355Z,26.53
2019-03-28T04:20:00.597Z,21.70
2019-03-28T04:22:26.864Z,22.53
2019-03-28T04:24:53.103Z,22.63
2019-03-28T04:27:20.929Z,24.27
2019-03-28T04:29:47.261Z,25.57
2019-03-28T04:32:13.494Z,18.30
2019-03-28T04:34:39.741Z,22.40
2019-03-28T04:37:06.565Z,27.70
2019-03-28T04:39:33.069Z,23.83
2019-03-28T04:41:59.297Z,21.87
2019-03-28T04:44:25.785Z,27.03
2019-03-28T04:46:52.057Z,22.10
2019-03-28T04:49:18.670Z,23.70
2019-03-28T04:51:45.072Z,24.70
2019-03-28T04:54:11.324Z,25.67
2019-03-28T04:56:38.269Z,27.93
2019-03-28T04:59:04.557Z,26.93
2019-03-28T05:01:30.807Z,31.00
2019-03-28T05:03:57.060Z,31.30
2019-03-28T05:06:23.779Z,23.63
2019-03-28T05:08:50.774Z,27.40
2019-03-28T05:11:17.013Z,26.80
2019-03-28T05:13:43.279Z,29.50
2019-03-28T05:16:09.533Z,22.87
2019-03-28T05:18:35.892Z,27.57
2019-03-28T05:21:02.107Z,24.70
2019-03-28T05:23:28.451Z,24.10
2019-03-28T05:25:54.663Z,26.10
2019-03-28T05:28:20.972Z,26.97
2019-03-28T05:30:47.462Z,26.97
2019-03-28T05:33:15.590Z,24.47
2019-03-28T05:35:41.854Z,30.47
2019-03-28T05:38:08.279Z,26.60
2019-03-28T05:40:34.493Z,25.40
2019-03-28T05:43:00.717Z,30.70
2019-03-28T05:45:26.954Z,24.10
2019-03-28T05:47:53.219Z,28.00
2019-03-28T05:50:19.489Z,24.53
2019-03-28T05:52:45.719Z,26.77
2019-03-28T05:55:11.948Z,23.33
2019-03-28T05:57:38.520Z,30.33
2019-03-28T06:00:05.892Z,31.37
2019-03-28T06:02:32.098Z,27.43
2019-03-28T06:04:58.527Z,32.20
2019-03-28T06:07:24.747Z,27.37
2019-03-28T06:09:51.028Z,24.97
2019-03-28T06:12:19.028Z,28.03
2019-03-28T06:14:45.393Z,26.63
2019-03-28T06:17:11.614Z,26.43
2019-03-28T06:19:38.396Z,28.60
2019-03-28T06:22:04.810Z,30.37
2019-03-28T06:24:31.323Z,31.20
2019-03-28T06:26:57.644Z,27.67
2019-03-28T06:29:25.292Z,27.17
2019-03-28T06:31:55.699Z,25.37
2019-03-28T06:34:20.207Z,22.53
2019-03-28T06:36:46.438Z,29.67
2019-03-28T06:39:12.718Z,27.27
2019-03-28T06:41:38.990Z,29.63
2019-03-28T06:44:05.219Z,26.27
2019-03-28T06:46:31.449Z,30.80
2019-03-28T06:48:57.742Z,34.13
2019-03-28T06:51:23.984Z,29.70
2019-03-28T06:53:50.203Z,33.23
2019-03-28T06:56:17.331Z,29.30
2019-03-28T06:58:43.843Z,29.40
2019-03-28T07:01:10.062Z,29.70
2019-03-28T07:03:36.579Z,29.97
2019-03-28T07:06:03.106Z,22.77
2019-03-28T07:08:29.330Z,29.13
2019-03-28T07:10:57.985Z,26.60
2019-03-28T07:13:24.186Z,27.93
2019-03-28T07:15:50.503Z,29.07
2019-03-28T07:18:16.749Z,31.13
2019-03-28T07:20:42.981Z,32.17
2019-03-28T07:23:09.231Z,33.87
2019-03-28T07:25:35.476Z,36.70
2019-03-28T07:28:01.814Z,37.80
2019-03-28T07:30:28.108Z,36.80
2019-03-28T07:32:54.329Z,34.20
2019-03-28T07:35:20.577Z,37.10
2019-03-28T07:37:46.912Z,38.17
2019-03-28T07:40:14.653Z,37.60
2019-03-28T07:42:40.889Z,36.10
2019-03-28T07:45:08.031Z,34.90
2019-03-28T07:47:34.509Z,37.77
2019-03-28T07:50:01.060Z,35.10
2019-03-28T07:52:27.642Z,30.73
2019-03-28T07:54:54.013Z,35.73
2019-03-28T07:57:20.268Z,33.83
2019-03-28T07:59:46.719Z,32.70
2019-03-28T08:02:12.916Z,31.07
2019-03-28T08:04:39.159Z,31.73
2019-03-28T08:07:05.545Z,29.23
2019-03-28T08:09:36.831Z,27.90
2019-03-28T08:11:59.895Z,32.47
2019-03-28T08:14:26.133Z,30.80
2019-03-28T08:16:52.482Z,32.80
2019-03-28T08:19:18.706Z,27.77
2019-03-28T08:21:44.963Z,25.20
2019-03-28T08:24:11.225Z,23.17
2019-03-28T08:26:37.555Z,23.93
2019-03-28T08:29:04.003Z,27.90
2019-03-28T08:31:31.227Z,25.20
2019-03-28T08:33:57.458Z,23.57
2019-03-28T08:36:25.516Z,20.10
2019-03-28T08:38:53.387Z,20.30
2019-03-28T08:41:19.938Z,21.10
2019-03-28T08:43:46.222Z,22.63
2019-03-28T08:46:13.656Z,24.50
2019-03-28T08:48:39.995Z,19.80
2019-03-28T08:51:06.585Z,20.83
2019-03-28T08:53:32.826Z,17.30
2019-03-28T08:55:59.163Z,20.50
2019-03-28T08:58:25.395Z,17.17
2019-03-28T09:03:36.304Z,20.80
2019-03-28T09:06:02.858Z,21.80
2019-03-28T09:08:29.129Z,19.97
2019-03-28T09:10:55.452Z,15.60
2019-03-28T09:13:27.540Z,16.53
2019-03-28T09:15:56.987Z,14.30
2019-03-28T09:18:32.275Z,18.13
2019-03-28T09:20:58.736Z,20.53
2019-03-28T09:23:25.072Z,17.17
2019-03-28T09:25:51.323Z,18.77
2019-03-28T09:28:17.580Z,17.60
2019-03-28T09:30:48.836Z,18.60
2019-03-28T09:33:11.982Z,14.17
2019-03-28T09:35:38.574Z,12.07
2019-03-28T09:38:04.870Z,14.70
2019-03-28T09:40:31.309Z,15.50
2019-03-28T09:42:57.652Z,17.50
2019-03-28T09:45:23.999Z,15.30
2019-03-28T09:47:50.312Z,17.33
2019-03-28T09:50:17.049Z,13.50
2019-03-28T09:52:43.266Z,15.97
2019-03-28T09:55:09.792Z,15.40
2019-03-28T09:57:36.021Z,15.87
2019-03-28T10:00:07.172Z,16.10
2019-03-28T10:02:33.509Z,18.33
2019-03-28T10:04:59.956Z,16.50
2019-03-28T10:07:26.195Z,15.40
2019-03-28T10:09:52.829Z,16.10
2019-03-28T10:12:19.102Z,15.03
2019-03-28T10:14:45.367Z,17.13
2019-03-28T10:17:11.930Z,19.20
2019-03-28T10:19:38.228Z,15.90
2019-03-28T10:22:04.516Z,15.30
2019-03-28T10:24:30.823Z,12.60
2019-03-28T10:26:57.131Z,13.90
2019-03-28T10:29:23.411Z,16.87
2019-03-28T10:31:49.884Z,16.67
2019-03-28T10:34:16.425Z,14.63
2019-03-28T10:36:42.788Z,15.40
2019-03-28T10:39:09.240Z,13.30
2019-03-28T10:41:39.681Z,16.40
2019-03-28T10:44:05.180Z,20.00
2019-03-28T10:46:31.489Z,13.33
2019-03-28T10:48:57.788Z,11.13
2019-03-28T10:51:24.121Z,11.27
2019-03-28T10:53:50.550Z,12.40
2019-03-28T10:56:21.813Z,13.07
2019-03-28T10:58:45.325Z,13.60
2019-03-28T11:01:12.028Z,9.57
2019-03-28T11:03:38.345Z,9.07
2019-03-28T11:06:04.668Z,10.00
2019-03-28T11:08:30.984Z,8.43
2019-03-28T11:10:57.303Z,7.40
2019-03-28T11:13:23.652Z,8.03
2019-03-28T11:15:49.936Z,6.87
2019-03-28T11:18:16.259Z,6.77
2019-03-28T11:20:42.910Z,8.83
2019-03-28T11:23:09.206Z,7.40
2019-03-28T11:25:35.739Z,8.37
2019-03-28T11:28:02.073Z,7.23
2019-03-28T11:30:28.379Z,6.80
2019-03-28T11:32:54.798Z,8.77
2019-03-28T11:35:21.091Z,9.90
2019-03-28T11:37:47.424Z,9.73
2019-03-28T11:40:14.160Z,7.67
2019-03-28T11:42:40.545Z,11.00
2019-03-28T11:45:09.332Z,9.83
2019-03-28T11:47:36.084Z,8.30
2019-03-28T11:50:07.647Z,8.50
2019-03-28T11:52:34.264Z,10.30
2019-03-28T11:55:00.596Z,8.00
2019-03-28T11:57:26.921Z,10.40
2019-03-28T11:59:53.198Z,12.00
2019-03-28T12:02:20.639Z,13.53
2019-03-28T12:04:47.132Z,16.73
2019-03-28T12:07:13.434Z,12.40
2019-03-28T12:09:39.836Z,9.70
2019-03-28T12:12:06.168Z,12.17
2019-03-28T12:14:32.481Z,11.97
2019-03-28T12:16:58.802Z,16.77
2019-03-28T12:19:25.099Z,15.30
2019-03-28T12:21:51.720Z,11.80
2019-03-28T12:24:18.762Z,11.53
2019-03-28T12:26:45.118Z,20.90
2019-03-28T12:29:11.435Z,15.27
2019-03-28T12:31:37.740Z,15.97
2019-03-28T12:34:04.038Z,17.87
2019-03-28T12:36:30.343Z,15.40
2019-03-28T12:38:56.673Z,15.73
2019-03-28T12:41:23.006Z,17.87
2019-03-28T12:43:49.320Z,17.03
2019-03-28T12:46:15.643Z,16.13
2019-03-28T12:48:41.965Z,13.43
2019-03-28T12:51:08.267Z,16.00
2019-03-28T12:53:34.763Z,15.77
2019-03-28T12:56:01.108Z,14.60
2019-03-28T12:58:27.428Z,14.10
2019-03-28T13:00:53.738Z,18.50
2019-03-28T13:03:20.059Z,15.63
2019-03-28T13:05:46.415Z,14.73
2019-03-28T13:08:12.720Z,17.73
2019-03-28T13:10:39.017Z,16.40
2019-03-28T13:13:05.364Z,14.37
2019-03-28T13:15:31.690Z,16.70
2019-03-28T13:17:58.101Z,16.80
2019-03-28T13:20:24.407Z,16.80
2019-03-28T13:22:52.076Z,16.30
2019-03-28T13:25:18.499Z,15.90
2019-03-28T13:27:44.800Z,13.13
2019-03-28T13:30:13.203Z,14.10
2019-03-28T13:32:41.913Z,15.57
2019-03-28T13:35:08.920Z,15.00
2019-03-28T13:37:36.123Z,15.73
2019-03-28T13:40:06.134Z,15.00
2019-03-28T13:42:32.443Z,19.03
2019-03-28T13:45:00.931Z,17.40
2019-03-28T13:47:27.296Z,17.07
2019-03-28T13:49:53.728Z,15.07
2019-03-28T13:52:20.055Z,15.23
2019-03-28T13:54:46.758Z,16.80
2019-03-28T13:57:13.085Z,12.97
2019-03-28T13:59:39.396Z,15.00
2019-03-28T14:02:07.142Z,15.40
2019-03-28T14:04:33.586Z,14.30
2019-03-28T14:06:59.906Z,12.30
2019-03-28T14:09:27.212Z,13.77
2019-03-28T14:11:53.620Z,12.80
2019-03-28T14:14:19.928Z,11.90
2019-03-28T14:16:46.264Z,14.93
2019-03-28T14:19:12.571Z,13.70
2019-03-28T14:21:38.920Z,11.20
2019-03-28T14:24:05.232Z,15.43
2019-03-28T14:26:31.538Z,14.13
2019-03-28T14:28:57.849Z,14.70
2019-03-28T14:31:24.150Z,14.53
2019-03-28T14:33:51.265Z,14.10
2019-03-28T14:36:17.557Z,11.73
2019-03-28T14:38:44.710Z,14.70
2019-03-28T14:41:11.019Z,16.03
2019-03-28T14:43:37.353Z,13.63
2019-03-28T14:46:03.840Z,20.30
2019-03-28T14:48:30.147Z,11.97
2019-03-28T14:50:56.499Z,12.50
2019-03-28T14:53:22.853Z,12.03
2019-03-28T14:55:49.579Z,14.17
2019-03-28T14:58:15.897Z,14.20
2019-03-28T15:00:51.176Z,12.90
2019-03-28T15:03:26.395Z,13.33
2019-03-28T15:05:46.692Z,12.23
2019-03-28T15:08:28.160Z,12.13
2019-03-28T15:10:54.493Z,13.13
2019-03-28T15:13:20.812Z,12.40
2019-03-28T15:15:47.122Z,11.77
2019-03-28T15:18:13.441Z,9.27
2019-03-28T15:20:39.845Z,11.70
2019-03-28T15:23:06.248Z,7.90
2019-03-28T15:25:32.547Z,8.60
2019-03-28T15:27:58.906Z,13.00
2019-03-28T15:30:25.211Z,7.30
2019-03-28T15:32:51.569Z,9.70
2019-03-28T15:35:17.996Z,9.80
2019-03-28T15:37:44.601Z,11.50
2019-03-28T15:40:11.197Z,7.03
2019-03-28T15:42:37.501Z,7.80
2019-03-28T15:45:07.224Z,7.37
2019-03-28T15:47:33.987Z,8.67
2019-03-28T15:50:00.428Z,7.53
2019-03-28T15:52:27.588Z,7.13
2019-03-28T15:54:54.075Z,8.77
2019-03-28T15:57:20.389Z,6.63
2019-03-28T15:59:48.093Z,5.40
2019-03-28T16:02:14.460Z,5.63
2019-03-28T16:04:40.754Z,6.00
2019-03-28T16:07:07.825Z,5.90
2019-03-28T16:09:34.300Z,8.80
2019-03-28T16:12:02.808Z,9.00
2019-03-28T16:14:28.836Z,8.37
2019-03-28T16:16:55.399Z,9.43
2019-03-28T16:19:21.817Z,9.53
2019-03-28T16:21:48.115Z,8.67
2019-03-28T16:24:14.436Z,8.60
2019-03-28T16:26:40.744Z,6.00
2019-03-28T16:29:07.423Z,7.60
2019-03-28T16:31:33.974Z,9.43
2019-03-28T16:34:06.653Z,6.27
2019-03-28T16:36:28.740Z,10.17
2019-03-28T16:38:55.060Z,11.73
2019-03-28T16:41:21.364Z,8.90
2019-03-28T16:43:47.687Z,9.77
2019-03-28T16:46:14.114Z,9.50
2019-03-28T16:48:40.531Z,8.93
2019-03-28T16:51:06.844Z,10.60
2019-03-28T16:53:33.289Z,12.40
2019-03-28T16:55:59.587Z,7.53
2019-03-28T16:58:26.299Z,8.57
2019-03-28T17:04:52.038Z,7.10
2019-03-28T17:07:18.663Z,10.40
2019-03-28T17:09:46.022Z,10.10
2019-03-28T17:12:12.476Z,7.60
2019-03-28T17:14:38.781Z,9.53
2019-03-28T17:17:05.117Z,8.10
2019-03-28T17:19:31.926Z,11.50
2019-03-28T17:21:58.309Z,10.63
2019-03-28T17:24:24.715Z,11.23
2019-03-28T17:26:51.088Z,11.97
2019-03-28T17:29:17.416Z,10.23
2019-03-28T17:31:44.959Z,10.33
2019-03-28T17:34:11.581Z,8.77
2019-03-28T17:36:37.870Z,9.27
2019-03-28T17:39:05.074Z,11.90
2019-03-28T17:41:31.867Z,9.70
2019-03-28T17:43:58.424Z,10.20
2019-03-28T17:46:24.772Z,12.87
2019-03-28T17:48:51.111Z,13.13
2019-03-28T17:51:17.411Z,13.57
2019-03-28T17:53:43.736Z,19.30
2019-03-28T17:56:10.067Z,11.20
2019-03-28T17:58:36.370Z,11.23
2019-03-28T18:01:03.519Z,9.43
2019-03-28T18:03:31.566Z,16.77
2019-03-28T18:05:58.767Z,15.43
2019-03-28T18:08:25.172Z,11.57
2019-03-28T18:10:51.504Z,10.17
2019-03-28T18:13:17.824Z,10.00
2019-03-28T18:15:44.237Z,10.60
2019-03-28T18:18:12.037Z,9.93
2019-03-28T18:20:38.619Z,11.77
2019-03-28T18:23:04.972Z,15.60
2019-03-28T18:25:31.310Z,9.83
2019-03-28T18:27:57.624Z,11.80
2019-03-28T18:30:24.641Z,9.60
2019-03-28T18:32:50.964Z,8.47
2019-03-28T18:35:17.500Z,7.53
2019-03-28T18:37:44.754Z,4.70
2019-03-28T18:40:11.559Z,5.50
2019-03-28T18:42:37.969Z,6.33
2019-03-28T18:45:07.815Z,4.43
2019-03-28T18:47:34.345Z,7.47
2019-03-28T18:50:03.361Z,6.37
2019-03-28T18:52:29.056Z,4.30
2019-03-28T18:54:55.376Z,5.70
2019-03-28T18:57:21.695Z,6.43
2019-03-28T18:59:48.012Z,8.10
2019-03-28T19:02:14.331Z,12.57
2019-03-28T19:04:40.653Z,8.03
2019-03-28T19:07:06.967Z,5.13
2019-03-28T19:09:33.341Z,7.37
2019-03-28T19:11:59.777Z,6.63
2019-03-28T19:14:26.090Z,4.43
2019-03-28T19:16:52.393Z,6.37
2019-03-28T19:19:18.940Z,6.47
2019-03-28T19:21:45.258Z,5.70
2019-03-28T19:24:11.594Z,5.13
2019-03-28T19:26:37.953Z,4.07
2019-03-28T19:29:04.277Z,7.00
2019-03-28T19:31:30.877Z,7.93
2019-03-28T19:33:57.190Z,4.40
2019-03-28T19:36:24.301Z,6.83
2019-03-28T19:38:50.727Z,8.73
2019-03-28T19:41:17.038Z,7.43
2019-03-28T19:43:43.799Z,5.00
2019-03-28T19:46:10.913Z,4.30
2019-03-28T19:48:37.257Z,8.90
2019-03-28T19:51:03.564Z,4.90
2019-03-28T19:53:29.892Z,6.13
2019-03-28T19:55:56.241Z,4.63
2019-03-28T19:58:22.537Z,4.67
2019-03-28T20:00:48.900Z,5.87
2019-03-28T20:03:15.338Z,4.73
2019-03-28T20:05:47.902Z,4.53
2019-03-28T20:08:15.855Z,4.70
2019-03-28T20:10:38.284Z,5.10
2019-03-28T20:13:05.432Z,9.30
2019-03-28T20:15:32.025Z,6.27
2019-03-28T20:18:00.250Z,4.27
2019-03-28T20:20:26.560Z,4.30
2019-03-28T20:22:52.989Z,5.30
2019-03-28T20:25:19.431Z,5.93
2019-03-28T20:27:45.757Z,4.03
2019-03-28T20:30:12.714Z,5.67
2019-03-28T20:32:39.047Z,4.93
2019-03-28T20:35:06.192Z,7.07
2019-03-28T20:37:32.506Z,6.80
2019-03-28T20:39:58.989Z,6.47
2019-03-28T20:42:25.337Z,6.63
2019-03-28T20:44:51.674Z,4.30
2019-03-28T20:47:17.999Z,5.03
2019-03-28T20:49:46.671Z,5.47
2019-03-28T20:52:12.577Z,11.43
2019-03-28T20:54:38.893Z,5.23
2019-03-28T20:57:05.243Z,8.83
2019-03-28T20:59:31.540Z,5.93
2019-03-28T21:01:57.960Z,15.13
2019-03-28T21:04:31.284Z,6.17
2019-03-28T21:06:52.579Z,5.10
2019-03-28T21:09:19.011Z,20.43
2019-03-28T21:11:45.354Z,6.57
2019-03-28T21:14:11.630Z,6.27
2019-03-28T21:16:38.182Z,5.73
2019-03-28T21:19:04.696Z,5.73
2019-03-28T21:21:31.108Z,5.27
2019-03-28T21:23:57.385Z,7.80
2019-03-28T21:26:23.716Z,6.90
2019-03-28T21:28:50.884Z,5.57
2019-03-28T21:31:17.536Z,5.43
2019-03-28T21:33:43.813Z,7.33
2019-03-28T21:36:10.205Z,5.57
2019-03-28T21:38:36.435Z,5.40
2019-03-28T21:41:02.773Z,6.70
2019-03-28T21:43:29.167Z,24.50
2019-03-28T21:45:55.387Z,8.37
2019-03-28T21:48:21.850Z,7.30
2019-03-28T21:51:45.757Z,7.10
2019-03-28T21:54:11.342Z,7.10
2019-03-28T21:56:37.792Z,6.93
2019-03-28T21:59:05.953Z,5.90
2019-03-28T22:01:32.835Z,7.20
2019-03-28T22:03:59.037Z,8.13
2019-03-28T22:06:25.271Z,7.80
2019-03-28T22:08:51.498Z,6.80
2019-03-28T22:11:17.717Z,6.33
2019-03-28T22:13:43.944Z,6.93
2019-03-28T22:16:10.205Z,6.13
2019-03-28T22:18:36.433Z,7.07
2019-03-28T22:21:03.077Z,8.00
2019-03-28T22:23:29.340Z,6.47
2019-03-28T22:25:55.571Z,7.37
2019-03-28T22:28:21.814Z,6.57
2019-03-28T22:30:48.061Z,6.83
2019-03-28T22:33:14.331Z,11.30
2019-03-28T22:35:40.803Z,6.27
2019-03-28T22:38:07.039Z,6.20
2019-03-28T22:40:33.346Z,6.80
2019-03-28T22:42:59.596Z,5.97
2019-03-28T22:45:25.925Z,5.80
2019-03-28T22:47:52.191Z,6.67
2019-03-28T22:50:18.423Z,5.70
2019-03-28T22:52:44.678Z,7.00
2019-03-28T22:55:11.613Z,6.80
2019-03-28T22:57:37.837Z,11.90
2019-03-28T23:00:11.880Z,6.50
2019-03-28T23:02:38.507Z,8.47
2019-03-28T23:05:07.580Z,8.40
2019-03-28T23:07:33.872Z,7.87
2019-03-28T23:10:00.362Z,7.40
2019-03-28T23:12:26.545Z,7.43
2019-03-28T23:14:52.791Z,8.07
2019-03-28T23:17:19.045Z,7.67
2019-03-28T23:19:45.423Z,11.77
2019-03-28T23:22:11.684Z,15.00
2019-03-28T23:24:39.157Z,9.20
2019-03-28T23:27:05.543Z,8.60
2019-03-28T23:29:32.006Z,7.83
2019-03-28T23:31:58.282Z,7.53
2019-03-28T23:34:24.529Z,14.40
2019-03-28T23:36:50.768Z,8.83
2019-03-28T23:39:16.997Z,8.37
2019-03-28T23:41:43.271Z,8.53
2019-03-28T23:44:09.504Z,10.73
2019-03-28T23:46:35.742Z,12.23
2019-03-28T23:49:01.979Z,7.93
2019-03-28T23:51:28.210Z,8.17
2019-03-28T23:53:54.468Z,10.63
2019-03-28T23:56:20.697Z,8.40
2019-03-28T23:58:47.124Z,8.60
